Time;durP1;ratioP1;P1;durP2;ratioP2;P2;SDS_P1;SDS_P2;PMS_P1;PMS_P2;Temp;Humidity;BMP_temperature;BMP_pressure;BME280_temperature;BME280_humidity;BME280_pressure;Samples;Min_cycle;Max_cycle;Signal;HPM_P1;HPM_P2
2021/01/31 00:00:29;;;;;;;24.77;14.50;;;-3.00;91.80;;;;;;4983593;28;20216;-79
2021/01/31 00:03:10;;;;;;;26.43;13.63;;;-3.10;91.70;;;;;;4970131;28;20192;-79
2021/01/31 00:05:38;;;;;;;24.40;13.97;;;-3.00;91.70;;;;;;4979103;28;20203;-80
2021/01/31 00:08:07;;;;;;;24.10;12.50;;;-3.00;91.60;;;;;;4971640;28;20536;-80
2021/01/31 00:10:35;;;;;;;24.63;13.83;;;-3.00;91.60;;;;;;4973052;28;20828;-80
2021/01/31 00:13:04;;;;;;;24.27;12.87;;;-3.00;91.70;;;;;;4978531;28;20588;-79
2021/01/31 00:15:36;;;;;;;23.57;13.37;;;-3.00;91.70;;;;;;4962512;28;20235;-81
2021/01/31 00:18:05;;;;;;;23.87;13.50;;;-3.00;91.70;;;;;;4976929;28;20223;-78
2021/01/31 00:20:34;;;;;;;24.03;13.60;;;-3.00;91.70;;;;;;4976524;28;20200;-78
2021/01/31 00:23:03;;;;;;;24.57;13.07;;;-3.10;91.60;;;;;;4971236;28;20208;-81
2021/01/31 00:25:32;;;;;;;22.13;14.57;;;-3.10;91.60;;;;;;4994754;28;20407;-79
2021/01/31 00:28:00;;;;;;;25.87;13.20;;;-3.10;91.60;;;;;;4995309;28;20201;-81
2021/01/31 00:30:30;;;;;;;26.13;14.00;;;-3.10;91.50;;;;;;5010058;28;20616;-80
2021/01/31 00:33:00;;;;;;;23.13;13.40;;;-3.20;91.50;;;;;;4985914;28;20400;-80
2021/01/31 00:35:29;;;;;;;25.77;12.83;;;-3.20;91.70;;;;;;4981543;28;20207;-82
2021/01/31 00:37:57;;;;;;;22.53;13.00;;;-3.30;91.70;;;;;;4991716;28;20216;-81
2021/01/31 00:40:26;;;;;;;22.77;13.47;;;-3.30;91.70;;;;;;4993477;28;20438;-82
2021/01/31 00:42:55;;;;;;;24.37;14.00;;;-3.30;91.70;;;;;;5003769;28;20207;-81
2021/01/31 00:45:25;;;;;;;22.37;12.30;;;-3.20;91.70;;;;;;4999171;28;20208;-79
2021/01/31 00:47:53;;;;;;;19.10;12.47;;;-3.20;91.70;;;;;;4977142;28;20211;-80
2021/01/31 00:50:24;;;;;;;21.83;12.77;;;-3.00;91.60;;;;;;4963627;28;20220;-79
2021/01/31 00:52:53;;;;;;;21.43;12.33;;;-3.10;91.70;;;;;;4978692;28;20200;-82
2021/01/31 00:55:20;;;;;;;24.23;13.03;;;-3.10;91.50;;;;;;4977757;28;20203;-81
2021/01/31 00:57:49;;;;;;;22.93;12.33;;;-3.10;91.50;;;;;;4981163;28;20224;-82
2021/01/31 01:00:21;;;;;;;21.10;12.00;;;-3.20;91.50;;;;;;4990221;28;20213;-80
2021/01/31 01:02:49;;;;;;;21.80;12.73;;;-3.20;91.50;;;;;;4970776;28;20824;-80
2021/01/31 01:05:19;;;;;;;22.80;12.07;;;-3.20;91.60;;;;;;4982079;28;20188;-80
2021/01/31 01:07:47;;;;;;;20.50;12.07;;;-3.20;91.60;;;;;;4979155;28;20212;-81
2021/01/31 01:10:18;;;;;;;23.33;11.73;;;-3.20;91.60;;;;;;4984888;28;20199;-79
2021/01/31 01:12:47;;;;;;;21.03;12.27;;;-3.20;91.60;;;;;;4975682;28;20228;-82
2021/01/31 01:15:17;;;;;;;19.63;12.37;;;-3.10;91.70;;;;;;4992771;28;20200;-81
2021/01/31 01:17:46;;;;;;;21.10;12.27;;;-3.10;91.60;;;;;;4983947;28;20468;-77
2021/01/31 01:20:15;;;;;;;21.90;12.50;;;-3.20;91.50;;;;;;4997663;28;20678;-81
2021/01/31 01:22:43;;;;;;;23.30;13.00;;;-3.30;91.40;;;;;;4982442;28;20294;-80
2021/01/31 01:25:14;;;;;;;19.83;11.83;;;-3.30;91.40;;;;;;4975919;28;20757;-81
2021/01/31 01:27:42;;;;;;;20.80;11.83;;;-3.20;91.50;;;;;;4964021;28;20404;-80
2021/01/31 01:30:14;;;;;;;21.53;12.13;;;-3.40;91.50;;;;;;4978940;28;20196;-81
2021/01/31 01:32:50;;;;;;;20.33;11.23;;;-3.20;91.60;;;;;;4962107;28;20579;-81
2021/01/31 01:35:18;;;;;;;18.50;12.20;;;-3.40;91.60;;;;;;4983502;28;20260;-80
2021/01/31 01:37:46;;;;;;;22.73;12.10;;;-3.50;91.60;;;;;;4980050;28;20228;-81
2021/01/31 01:40:19;;;;;;;20.97;12.00;;;-3.50;91.70;;;;;;4978613;28;20200;-81
2021/01/31 01:42:46;;;;;;;21.97;12.63;;;-3.60;91.60;;;;;;4966890;28;20224;-81
2021/01/31 01:45:15;;;;;;;20.93;12.07;;;-3.50;91.60;;;;;;4975447;28;20216;-81
2021/01/31 01:47:43;;;;;;;21.80;11.80;;;-3.60;91.70;;;;;;4971041;28;20691;-80
2021/01/31 01:50:27;;;;;;;22.10;11.80;;;-3.60;91.70;;;;;;4964596;28;20619;-81
2021/01/31 01:52:59;;;;;;;19.87;12.00;;;-3.60;91.60;;;;;;4967615;28;20220;-80
2021/01/31 01:55:30;;;;;;;24.23;13.50;;;-3.70;91.70;;;;;;4978558;28;20223;-80
2021/01/31 01:58:04;;;;;;;20.07;12.33;;;-3.70;91.80;;;;;;4969748;28;20784;-79
2021/01/31 02:00:33;;;;;;;21.73;11.90;;;-3.80;91.90;;;;;;4986465;28;20195;-80
2021/01/31 02:03:05;;;;;;;21.90;12.17;;;-3.80;91.90;;;;;;4984954;28;20200;-80
2021/01/31 02:05:34;;;;;;;22.37;11.83;;;-3.70;92.00;;;;;;4990832;28;20267;-79
2021/01/31 02:08:03;;;;;;;22.03;13.37;;;-3.70;92.10;;;;;;4990283;28;20276;-79
2021/01/31 02:10:31;;;;;;;23.03;13.53;;;-3.70;92.00;;;;;;4982819;28;20298;-80
2021/01/31 02:13:02;;;;;;;23.13;13.03;;;-3.70;91.80;;;;;;4991368;28;20252;-79
2021/01/31 02:15:30;;;;;;;21.90;12.40;;;-3.70;91.80;;;;;;4987478;28;20236;-78
2021/01/31 02:18:23;;;;;;;21.27;12.47;;;-3.70;91.80;;;;;;4987905;28;20314;-79
2021/01/31 02:21:20;;;;;;;25.87;14.20;;;-3.70;91.80;;;;;;4977164;28;20203;-79
2021/01/31 02:24:25;;;;;;;26.07;14.27;;;-3.70;91.90;;;;;;4998173;28;20184;-80
2021/01/31 02:27:23;;;;;;;28.33;14.70;;;-3.90;91.80;;;;;;4991976;28;20205;-80
2021/01/31 02:30:38;;;;;;;25.47;14.07;;;-3.80;91.70;;;;;;4981194;28;20258;-80
2021/01/31 02:33:41;;;;;;;27.77;14.90;;;-3.90;91.70;;;;;;4974407;28;20278;-79
2021/01/31 02:36:15;;;;;;;24.50;15.07;;;-3.90;91.80;;;;;;4979883;28;20210;-80
2021/01/31 02:39:07;;;;;;;26.33;14.37;;;-3.90;91.90;;;;;;4972773;28;20593;-80
2021/01/31 02:41:38;;;;;;;29.23;14.83;;;-4.00;92.00;;;;;;4967974;28;20215;-79
2021/01/31 02:44:09;;;;;;;26.00;15.60;;;-4.00;92.10;;;;;;4969979;28;20584;-80
2021/01/31 02:46:41;;;;;;;28.87;16.03;;;-4.10;92.10;;;;;;4970471;28;20756;-79
2021/01/31 02:49:18;;;;;;;28.00;15.53;;;-3.90;92.20;;;;;;4971815;28;20253;-81
2021/01/31 02:51:51;;;;;;;24.43;15.30;;;-4.00;92.30;;;;;;4974954;28;20200;-81
2021/01/31 02:54:23;;;;;;;23.87;15.30;;;-3.90;92.20;;;;;;4964682;28;20633;-80
2021/01/31 02:56:54;;;;;;;26.17;14.87;;;-3.80;92.20;;;;;;4978916;28;20721;-81
2021/01/31 02:59:27;;;;;;;27.73;15.10;;;-3.90;92.20;;;;;;4968706;28;20207;-80
2021/01/31 03:02:01;;;;;;;26.80;13.80;;;-3.90;92.20;;;;;;4970834;28;20790;-80
2021/01/31 03:04:35;;;;;;;25.17;14.67;;;-3.90;92.10;;;;;;4974429;28;20775;-82
2021/01/31 03:07:10;;;;;;;24.70;14.83;;;-3.90;92.10;;;;;;4965201;28;20474;-80
2021/01/31 03:09:43;;;;;;;24.33;13.60;;;-3.90;91.90;;;;;;4975952;28;20934;-80
2021/01/31 03:12:16;;;;;;;23.43;14.23;;;-4.00;91.80;;;;;;4986451;28;21081;-81
2021/01/31 03:14:49;;;;;;;23.43;13.03;;;-4.10;91.70;;;;;;4985239;28;20841;-81
2021/01/31 03:17:24;;;;;;;21.63;13.13;;;-4.20;91.70;;;;;;4987165;28;20306;-80
2021/01/31 03:20:02;;;;;;;28.00;13.97;;;-4.20;91.70;;;;;;4970946;28;20198;-82
2021/01/31 03:22:36;;;;;;;23.10;13.20;;;-4.30;91.80;;;;;;5002751;28;20524;-79
2021/01/31 03:25:09;;;;;;;24.33;13.23;;;-4.30;91.80;;;;;;4991311;28;20449;-80
2021/01/31 03:27:39;;;;;;;24.70;12.50;;;-4.40;91.90;;;;;;4980540;28;20448;-79
2021/01/31 03:30:12;;;;;;;22.77;14.13;;;-4.50;91.90;;;;;;4973729;28;20836;-80
2021/01/31 03:32:48;;;;;;;25.03;13.00;;;-4.50;91.90;;;;;;4963583;28;21030;-78
2021/01/31 03:35:21;;;;;;;23.43;11.83;;;-4.60;91.90;;;;;;4979412;28;21234;-78
2021/01/31 03:37:53;;;;;;;25.53;13.33;;;-4.70;91.70;;;;;;4971400;28;20579;-78
2021/01/31 03:40:23;;;;;;;23.53;13.77;;;-4.80;91.90;;;;;;4969284;28;20539;-79
2021/01/31 03:42:54;;;;;;;23.17;13.23;;;-4.90;91.90;;;;;;4975955;28;20465;-80
2021/01/31 03:45:27;;;;;;;24.57;13.73;;;-5.00;91.90;;;;;;4967127;28;20700;-81
2021/01/31 03:48:01;;;;;;;26.30;14.77;;;-5.00;92.20;;;;;;4976293;28;21176;-80
2021/01/31 03:50:32;;;;;;;24.10;14.00;;;-5.00;92.40;;;;;;4983553;28;20449;-80
2021/01/31 03:53:00;;;;;;;28.57;14.13;;;-5.00;92.40;;;;;;4989765;28;20600;-81
2021/01/31 03:55:28;;;;;;;27.87;14.70;;;-4.90;92.60;;;;;;5002575;28;20452;-81
2021/01/31 03:58:00;;;;;;;26.33;13.97;;;-4.90;92.60;;;;;;4981337;28;20483;-79
2021/01/31 04:00:30;;;;;;;28.37;14.10;;;-4.90;92.70;;;;;;5000171;28;20471;-80
2021/01/31 04:03:07;;;;;;;28.30;14.93;;;-4.80;92.80;;;;;;4978754;28;20574;-81
2021/01/31 04:05:39;;;;;;;29.17;14.53;;;-4.70;92.80;;;;;;4981970;28;20450;-80
2021/01/31 04:08:10;;;;;;;27.97;14.77;;;-4.50;92.80;;;;;;4974351;28;20465;-80
2021/01/31 04:10:41;;;;;;;24.20;14.97;;;-4.70;92.60;;;;;;4968298;28;20485;-81
2021/01/31 04:13:10;;;;;;;28.17;15.47;;;-4.90;92.10;;;;;;4973039;28;20491;-78
2021/01/31 04:15:44;;;;;;;22.57;13.63;;;-4.90;92.10;;;;;;4980455;28;21022;-81
2021/01/31 04:18:14;;;;;;;24.63;13.80;;;-5.10;92.10;;;;;;4966942;28;20565;-80
2021/01/31 04:20:48;;;;;;;29.20;15.93;;;-5.00;92.30;;;;;;4976292;28;20942;-80
2021/01/31 04:23:17;;;;;;;24.43;15.33;;;-5.00;92.40;;;;;;4964099;28;20852;-80
2021/01/31 04:25:45;;;;;;;28.53;16.60;;;-5.00;92.40;;;;;;4971941;28;20548;-81
2021/01/31 04:28:15;;;;;;;24.37;14.70;;;-4.90;92.50;;;;;;4978362;28;20458;-80
2021/01/31 04:30:45;;;;;;;24.87;13.13;;;-4.80;92.50;;;;;;4980184;28;20521;-79
2021/01/31 04:33:15;;;;;;;22.50;12.67;;;-4.80;92.30;;;;;;4978817;28;20953;-81
2021/01/31 04:35:42;;;;;;;26.53;15.40;;;-4.80;92.10;;;;;;4979077;28;20474;-80
2021/01/31 04:38:11;;;;;;;24.73;14.70;;;-4.80;91.90;;;;;;4975187;28;20484;-79
2021/01/31 04:40:39;;;;;;;24.73;13.90;;;-4.90;91.70;;;;;;4981162;28;20521;-80
2021/01/31 04:43:11;;;;;;;26.60;13.23;;;-4.90;91.70;;;;;;4975107;28;20542;-81
2021/01/31 04:45:43;;;;;;;25.47;13.57;;;-5.00;91.60;;;;;;4977631;28;20446;-81
2021/01/31 04:48:27;;;;;;;25.37;14.07;;;-5.00;91.50;;;;;;4973924;28;20451;-81
2021/01/31 04:51:07;;;;;;;26.93;12.83;;;-5.00;91.50;;;;;;4966886;28;20466;-80
2021/01/31 04:54:03;;;;;;;25.03;13.87;;;-5.00;91.50;;;;;;4981230;28;20558;-81
2021/01/31 04:56:42;;;;;;;25.07;13.93;;;-5.00;91.30;;;;;;4964649;28;20559;-81
2021/01/31 04:59:24;;;;;;;24.73;13.33;;;-4.90;91.20;;;;;;4973835;28;20468;-80
2021/01/31 05:01:53;;;;;;;20.43;12.70;;;-4.90;91.10;;;;;;4975155;28;20460;-80
2021/01/31 05:04:23;;;;;;;23.60;14.20;;;-4.90;90.90;;;;;;4984069;28;20467;-80
2021/01/31 05:06:56;;;;;;;20.37;12.33;;;-4.90;90.70;;;;;;4968186;28;20461;-79
2021/01/31 05:09:27;;;;;;;25.13;14.10;;;-4.90;90.60;;;;;;4973397;28;20962;-81
2021/01/31 05:12:01;;;;;;;23.20;12.83;;;-4.90;90.40;;;;;;4979548;28;20931;-81
2021/01/31 05:14:49;;;;;;;25.47;13.37;;;-4.90;90.20;;;;;;4973320;28;21153;-81
2021/01/31 05:17:18;;;;;;;24.03;13.10;;;-4.90;90.10;;;;;;4983219;28;20487;-80
2021/01/31 05:19:47;;;;;;;20.90;13.10;;;-5.10;90.00;;;;;;4973899;28;20484;-81
2021/01/31 05:22:20;;;;;;;22.80;12.03;;;-4.90;90.00;;;;;;4991403;28;20433;-81
2021/01/31 05:24:49;;;;;;;20.57;11.90;;;-4.90;90.00;;;;;;4989380;28;20469;-79
2021/01/31 05:27:19;;;;;;;23.90;13.20;;;-4.80;89.90;;;;;;4969999;28;20470;-81
2021/01/31 05:29:46;;;;;;;20.77;12.10;;;-4.90;89.70;;;;;;4976244;28;20499;-81
2021/01/31 05:32:17;;;;;;;22.37;12.07;;;-4.90;89.70;;;;;;4972288;28;20460;-81
2021/01/31 05:34:48;;;;;;;23.93;12.20;;;-4.80;89.60;;;;;;4969834;28;20448;-81
2021/01/31 05:37:18;;;;;;;21.43;12.20;;;-4.80;89.50;;;;;;4979997;28;20518;-79
2021/01/31 05:39:48;;;;;;;22.07;12.57;;;-4.90;89.20;;;;;;4977621;28;20489;-81
2021/01/31 05:42:19;;;;;;;19.10;11.23;;;-4.80;89.20;;;;;;4970182;28;20220;-81
2021/01/31 05:44:58;;;;;;;18.20;11.33;;;-4.80;89.30;;;;;;4972634;28;20452;-81
2021/01/31 05:47:32;;;;;;;21.60;10.60;;;-4.80;89.00;;;;;;4963118;28;20457;-81
2021/01/31 05:49:59;;;;;;;23.27;11.40;;;-4.80;89.10;;;;;;4984168;28;20957;-80
2021/01/31 05:52:36;;;;;;;20.53;10.63;;;-4.80;89.10;;;;;;4971737;28;20463;-81
2021/01/31 05:55:21;;;;;;;21.57;10.47;;;-4.80;88.80;;;;;;4966463;28;20575;-80
2021/01/31 05:57:50;;;;;;;19.43;10.97;;;-4.90;88.80;;;;;;4978158;28;20817;-81
2021/01/31 06:00:26;;;;;;;17.37;10.23;;;-4.90;89.10;;;;;;4967341;28;21243;-80
2021/01/31 06:02:58;;;;;;;16.97;9.90;;;-4.90;89.40;;;;;;4972421;28;20454;-80
2021/01/31 06:05:28;;;;;;;18.80;9.63;;;-4.90;89.60;;;;;;4967118;28;20458;-80
2021/01/31 06:08:06;;;;;;;17.07;9.90;;;-4.90;89.80;;;;;;4971651;28;20822;-80
2021/01/31 06:10:41;;;;;;;23.33;10.60;;;-4.80;89.80;;;;;;4977309;28;20456;-82
2021/01/31 06:13:19;;;;;;;20.33;10.87;;;-4.70;89.60;;;;;;4999565;28;20567;-80
2021/01/31 06:15:54;;;;;;;23.63;10.77;;;-4.70;89.40;;;;;;5005207;28;20467;-81
2021/01/31 06:18:27;;;;;;;20.73;11.00;;;-4.60;89.30;;;;;;4998141;28;20477;-82
2021/01/31 06:21:09;;;;;;;20.53;9.63;;;-4.60;89.00;;;;;;4977681;28;20497;-81
2021/01/31 06:23:42;;;;;;;16.50;10.20;;;-4.60;88.80;;;;;;4973877;28;20459;-80
2021/01/31 06:26:21;;;;;;;17.37;8.73;;;-4.50;88.70;;;;;;4977873;28;20683;-81
2021/01/31 06:28:53;;;;;;;16.13;9.90;;;-4.50;88.70;;;;;;4981509;28;20199;-81
2021/01/31 06:31:34;;;;;;;19.90;10.23;;;-4.40;88.70;;;;;;4985350;28;20202;-82
2021/01/31 06:34:01;;;;;;;18.77;9.53;;;-4.30;88.50;;;;;;4980426;28;20227;-79
2021/01/31 06:36:41;;;;;;;19.43;10.40;;;-4.50;88.40;;;;;;4985263;28;20471;-78
2021/01/31 06:39:18;;;;;;;17.07;9.73;;;-4.20;88.30;;;;;;4983996;28;20207;-81
2021/01/31 06:41:55;;;;;;;17.70;9.97;;;-4.20;88.10;;;;;;5003115;28;20478;-82
2021/01/31 06:44:41;;;;;;;17.87;9.43;;;-4.20;88.00;;;;;;4985657;28;20199;-82
2021/01/31 06:47:20;;;;;;;17.57;9.13;;;-4.30;87.70;;;;;;4988666;28;20194;-80
2021/01/31 06:49:58;;;;;;;15.77;8.77;;;-4.50;87.60;;;;;;4994221;28;20467;-80
2021/01/31 06:52:38;;;;;;;19.70;8.57;;;-4.60;88.00;;;;;;4993082;28;20487;-81
2021/01/31 06:55:22;;;;;;;15.53;8.93;;;-4.80;88.30;;;;;;4980678;28;20912;-80
2021/01/31 06:58:20;;;;;;;15.57;8.90;;;-4.80;89.10;;;;;;4981104;28;20480;-81
2021/01/31 07:01:16;;;;;;;14.13;8.13;;;-4.90;89.40;;;;;;4975584;28;20476;-81
2021/01/31 07:04:23;;;;;;;16.20;9.47;;;-4.80;89.90;;;;;;4961742;28;20806;-82
2021/01/31 07:07:24;;;;;;;13.00;8.30;;;-4.70;89.90;;;;;;4970663;28;20452;-79
2021/01/31 07:10:10;;;;;;;16.83;8.13;;;-4.70;89.50;;;;;;4970118;28;20466;-81
2021/01/31 07:12:52;;;;;;;16.83;8.70;;;-4.60;89.40;;;;;;4985741;28;20727;-80
2021/01/31 07:15:21;;;;;;;14.67;8.10;;;-4.60;89.20;;;;;;4983427;28;20472;-82
2021/01/31 07:17:55;;;;;;;17.07;8.90;;;-4.40;88.90;;;;;;4988695;28;20490;-80
2021/01/31 07:20:27;;;;;;;14.97;9.27;;;-4.30;88.80;;;;;;4981522;28;20549;-83
2021/01/31 07:23:02;;;;;;;17.83;8.93;;;-4.20;88.60;;;;;;4974299;28;20257;-80
2021/01/31 07:25:34;;;;;;;14.30;8.47;;;-4.20;88.10;;;;;;4978478;28;20515;-81
2021/01/31 07:28:07;;;;;;;15.27;8.87;;;-4.10;87.90;;;;;;4971171;28;20553;-81
2021/01/31 07:30:39;;;;;;;15.87;8.03;;;-4.00;87.70;;;;;;4981536;28;20210;-81
2021/01/31 07:33:12;;;;;;;17.97;8.87;;;-3.90;87.30;;;;;;4979543;28;20446;-81
2021/01/31 07:35:52;;;;;;;14.73;8.40;;;-3.80;86.80;;;;;;4971746;28;20462;-81
2021/01/31 07:38:26;;;;;;;16.90;8.77;;;-3.80;86.40;;;;;;4974144;28;20226;-80
2021/01/31 07:40:56;;;;;;;14.10;8.53;;;-3.80;86.10;;;;;;4967000;28;20199;-80
2021/01/31 07:43:27;;;;;;;12.13;7.93;;;-3.70;86.00;;;;;;4973857;28;20484;-79
2021/01/31 07:46:03;;;;;;;15.20;8.43;;;-3.60;86.00;;;;;;4978298;28;20199;-81
2021/01/31 07:48:55;;;;;;;14.60;8.67;;;-3.60;85.80;;;;;;4972309;28;20214;-80
2021/01/31 07:52:00;;;;;;;16.80;8.60;;;-3.50;85.60;;;;;;4978733;28;20204;-79
2021/01/31 07:54:33;;;;;;;15.10;9.07;;;-3.50;85.40;;;;;;4970503;28;20901;-82
2021/01/31 07:57:32;;;;;;;13.40;8.50;;;-3.50;85.30;;;;;;4966014;28;20211;-82
2021/01/31 08:00:20;;;;;;;14.57;7.90;;;-3.60;85.50;;;;;;4978224;28;20211;-81
2021/01/31 08:02:56;;;;;;;16.93;8.80;;;-3.40;85.30;;;;;;4966806;28;20203;-82
2021/01/31 08:05:53;;;;;;;12.63;7.93;;;-3.40;85.00;;;;;;4981180;28;20726;-81
2021/01/31 08:08:42;;;;;;;14.17;8.17;;;-3.40;85.10;;;;;;4973796;28;20568;-82
2021/01/31 08:11:31;;;;;;;16.60;9.40;;;-3.30;85.00;;;;;;4974291;28;20193;-81
2021/01/31 08:14:01;;;;;;;11.87;7.80;;;-3.30;85.10;;;;;;4976967;28;20208;-79
2021/01/31 08:16:56;;;;;;;15.13;8.57;;;-3.20;85.00;;;;;;4972302;28;20197;-82
2021/01/31 08:19:30;;;;;;;16.03;8.50;;;-3.30;84.80;;;;;;4994231;28;20224;-81
2021/01/31 08:22:01;;;;;;;15.57;9.50;;;-3.20;84.60;;;;;;4967533;28;20307;-81
2021/01/31 08:24:57;;;;;;;15.87;9.27;;;-3.10;84.30;;;;;;4976245;28;20218;-80
2021/01/31 08:27:45;;;;;;;19.37;9.97;;;-3.00;84.10;;;;;;4969081;28;20200;-81
2021/01/31 08:30:17;;;;;;;15.23;9.73;;;-2.90;83.80;;;;;;4980025;28;20790;-81
2021/01/31 08:33:18;;;;;;;17.60;9.83;;;-2.80;83.50;;;;;;4976952;28;20192;-81
2021/01/31 08:36:01;;;;;;;16.10;9.73;;;-2.70;83.20;;;;;;4977310;28;20679;-79
2021/01/31 08:38:37;;;;;;;18.30;10.00;;;-2.70;83.20;;;;;;4980834;28;20227;-81
2021/01/31 08:41:18;;;;;;;17.47;10.83;;;-2.60;83.00;;;;;;4976233;28;20300;-80
2021/01/31 08:43:47;;;;;;;19.77;10.17;;;-2.60;83.00;;;;;;4990230;28;20211;-82
2021/01/31 08:46:18;;;;;;;17.20;10.23;;;-2.60;83.20;;;;;;4980798;28;20208;-81
2021/01/31 08:48:50;;;;;;;18.37;10.37;;;-2.40;83.10;;;;;;4970289;28;20207;-81
2021/01/31 08:51:20;;;;;;;16.97;10.13;;;-2.50;82.70;;;;;;4980025;28;20626;-81
2021/01/31 08:54:04;;;;;;;17.30;11.00;;;-2.40;82.70;;;;;;4964318;28;20226;-81
2021/01/31 08:56:35;;;;;;;17.27;9.87;;;-2.40;82.40;;;;;;4980183;28;20717;-80
2021/01/31 08:59:05;;;;;;;18.23;10.80;;;-2.30;82.30;;;;;;4970000;28;20307;-82
2021/01/31 09:01:39;;;;;;;16.03;8.83;;;-2.40;82.10;;;;;;4973622;28;20559;-81
2021/01/31 09:04:09;;;;;;;21.87;10.73;;;-2.30;81.90;;;;;;4975742;28;20200;-80
2021/01/31 09:06:39;;;;;;;20.47;10.60;;;-2.30;82.00;;;;;;4967144;28;20204;-82
2021/01/31 09:09:14;;;;;;;16.90;9.87;;;-2.30;82.20;;;;;;4978866;28;20310;-81
2021/01/31 09:11:42;;;;;;;14.93;10.20;;;-2.30;82.10;;;;;;4983311;28;20199;-82
2021/01/31 09:14:13;;;;;;;19.67;10.10;;;-2.30;82.10;;;;;;4997107;28;20189;-81
2021/01/31 09:16:40;;;;;;;15.93;9.33;;;-2.30;82.00;;;;;;4988110;28;20246;-80
2021/01/31 09:19:19;;;;;;;16.03;9.00;;;-2.40;82.00;;;;;;4981149;28;20497;-81
2021/01/31 09:21:49;;;;;;;15.87;8.90;;;-2.40;82.10;;;;;;4996345;28;20212;-80
2021/01/31 09:24:20;;;;;;;18.20;8.90;;;-2.30;82.00;;;;;;4981645;28;20208;-81
2021/01/31 09:26:50;;;;;;;14.43;8.53;;;-2.30;81.70;;;;;;4966062;28;20444;-81
2021/01/31 09:29:22;;;;;;;12.93;8.70;;;-2.20;81.80;;;;;;4982803;28;20528;-79
2021/01/31 09:32:09;;;;;;;18.10;9.00;;;-2.30;81.50;;;;;;4967410;28;20204;-80
2021/01/31 09:34:41;;;;;;;13.37;7.40;;;-2.20;81.80;;;;;;4976199;28;20210;-80
2021/01/31 09:37:10;;;;;;;14.20;7.97;;;-2.10;81.40;;;;;;4975969;28;20830;-81
2021/01/31 09:39:40;;;;;;;11.30;8.10;;;-2.10;81.20;;;;;;4972505;28;20370;-81
2021/01/31 09:42:08;;;;;;;10.70;7.10;;;-2.10;81.30;;;;;;5002857;28;20188;-82
2021/01/31 09:44:37;;;;;;;12.03;7.50;;;-2.10;81.40;;;;;;4995286;28;20227;-81
2021/01/31 09:47:07;;;;;;;12.03;7.87;;;-2.10;81.20;;;;;;4990524;28;20469;-81
2021/01/31 09:49:37;;;;;;;12.47;8.47;;;-1.90;81.20;;;;;;5001562;28;20203;-80
2021/01/31 09:52:06;;;;;;;11.73;7.63;;;-2.10;81.30;;;;;;4971362;28;20517;-80
2021/01/31 09:54:36;;;;;;;14.30;9.23;;;-2.10;81.00;;;;;;4978773;28;20694;-81
2021/01/31 09:57:16;;;;;;;16.03;8.93;;;-2.20;81.10;;;;;;4976346;28;20198;-81
2021/01/31 09:59:44;;;;;;;19.90;9.03;;;-2.30;81.30;;;;;;4970035;28;20231;-81
2021/01/31 10:02:16;;;;;;;16.00;9.93;;;-2.40;81.30;;;;;;4982657;28;20196;-81
2021/01/31 10:04:46;;;;;;;14.33;8.40;;;-2.30;81.70;;;;;;4981803;28;20705;-81
2021/01/31 10:07:15;;;;;;;16.07;8.90;;;-2.50;81.50;;;;;;4996035;28;20204;-82
2021/01/31 10:09:50;;;;;;;15.97;9.47;;;-2.50;81.40;;;;;;4986081;28;20310;-80
2021/01/31 10:12:28;;;;;;;17.50;10.13;;;-2.50;81.70;;;;;;4982185;28;20220;-80
2021/01/31 10:14:58;;;;;;;14.60;9.30;;;-2.60;81.50;;;;;;4983241;28;20204;-81
2021/01/31 10:17:40;;;;;;;15.23;9.50;;;-2.60;81.80;;;;;;4997288;28;20224;-81
2021/01/31 10:20:37;;;;;;;16.50;9.17;;;-2.40;81.80;;;;;;4980707;28;20322;-81
2021/01/31 10:23:13;;;;;;;18.53;9.53;;;-2.60;81.80;;;;;;4974189;28;20200;-82
2021/01/31 10:25:43;;;;;;;27.23;16.93;;;-2.40;81.70;;;;;;4985423;28;20705;-80
2021/01/31 10:28:14;;;;;;;16.00;9.50;;;-2.50;81.80;;;;;;4981119;28;20208;-82
2021/01/31 10:30:44;;;;;;;17.60;10.17;;;-2.50;81.80;;;;;;4980341;28;20197;-80
2021/01/31 10:33:41;;;;;;;16.63;9.30;;;-2.40;81.60;;;;;;4977056;28;20208;-82
2021/01/31 10:36:17;;;;;;;8.63;5.20;;;-2.40;81.60;;;;;;4967916;28;20234;-81
2021/01/31 10:38:45;;;;;;;14.67;9.13;;;-2.30;81.50;;;;;;4969733;28;20245;-82
2021/01/31 10:41:13;;;;;;;19.50;10.07;;;-2.30;81.40;;;;;;4981281;28;20196;-83
2021/01/31 10:43:42;;;;;;;14.37;10.00;;;-2.30;81.40;;;;;;4975934;28;20200;-79
2021/01/31 10:46:10;;;;;;;16.60;10.77;;;-2.30;81.30;;;;;;4974199;28;20380;-80
2021/01/31 10:48:38;;;;;;;16.17;9.83;;;-2.20;82.20;;;;;;4978355;28;20215;-81
2021/01/31 10:51:06;;;;;;;16.70;9.87;;;-2.20;81.90;;;;;;4973467;28;20381;-80
2021/01/31 10:53:36;;;;;;;15.23;9.73;;;-2.20;82.40;;;;;;4976867;28;20394;-82
2021/01/31 10:56:05;;;;;;;19.57;10.70;;;-2.20;81.70;;;;;;4975726;28;20225;-83
2021/01/31 10:58:33;;;;;;;16.33;10.03;;;-2.20;81.70;;;;;;4973646;28;20227;-81
2021/01/31 11:01:02;;;;;;;17.47;10.13;;;-2.10;81.80;;;;;;4979445;28;20188;-82
2021/01/31 11:03:33;;;;;;;17.97;10.93;;;-2.10;81.70;;;;;;4969147;28;20201;-82
2021/01/31 11:06:01;;;;;;;15.93;9.77;;;-2.10;81.30;;;;;;4971065;28;20218;-81
2021/01/31 11:08:29;;;;;;;16.27;9.43;;;-2.10;81.30;;;;;;4976750;28;20212;-81
2021/01/31 11:10:58;;;;;;;18.70;11.03;;;-2.10;81.40;;;;;;4968336;28;20291;-81
2021/01/31 11:13:26;;;;;;;17.73;9.80;;;-2.10;81.20;;;;;;4990258;28;20200;-82
2021/01/31 11:15:54;;;;;;;15.33;9.60;;;-2.10;81.30;;;;;;4978522;28;20200;-82
2021/01/31 11:18:24;;;;;;;16.73;10.53;;;-2.00;81.20;;;;;;4984033;28;20699;-80
2021/01/31 11:20:53;;;;;;;19.13;11.40;;;-2.00;81.10;;;;;;4963233;28;20197;-81
2021/01/31 11:23:20;;;;;;;18.07;10.80;;;-2.00;81.40;;;;;;4975448;28;20200;-81
2021/01/31 11:25:48;;;;;;;18.77;10.13;;;-2.00;81.20;;;;;;4979904;28;20195;-80
2021/01/31 11:28:17;;;;;;;18.70;10.63;;;-2.00;81.20;;;;;;4970931;28;20230;-79
2021/01/31 11:30:45;;;;;;;17.83;10.27;;;-1.90;81.10;;;;;;4975140;28;20188;-80
2021/01/31 11:33:13;;;;;;;17.57;10.33;;;-1.90;80.80;;;;;;4980276;28;20204;-81
2021/01/31 11:35:42;;;;;;;15.23;10.43;;;-1.90;80.90;;;;;;4978403;28;20379;-79
2021/01/31 11:38:10;;;;;;;16.63;9.67;;;-2.00;80.90;;;;;;4980457;28;20783;-82
2021/01/31 11:40:39;;;;;;;14.83;9.60;;;-2.00;81.00;;;;;;4977641;28;20208;-82
2021/01/31 11:43:06;;;;;;;19.23;11.00;;;-2.00;80.90;;;;;;4971808;28;20427;-82
2021/01/31 11:45:34;;;;;;;16.63;10.20;;;-2.00;81.20;;;;;;4979157;28;20680;-81
2021/01/31 11:48:02;;;;;;;20.43;11.10;;;-2.00;81.20;;;;;;4972195;28;20231;-80
2021/01/31 11:50:29;;;;;;;17.13;11.37;;;-2.00;81.10;;;;;;4981140;28;20199;-81
2021/01/31 11:53:03;;;;;;;17.83;11.20;;;-2.00;81.20;;;;;;4984658;28;20451;-82
2021/01/31 11:55:30;;;;;;;19.93;11.70;;;-2.00;81.20;;;;;;5002915;28;20278;-81
2021/01/31 11:57:58;;;;;;;16.90;10.47;;;-2.00;81.40;;;;;;5005877;28;20244;-81
2021/01/31 12:00:25;;;;;;;18.93;11.27;;;-2.10;81.40;;;;;;5000344;28;20236;-82
2021/01/31 12:02:55;;;;;;;19.37;11.60;;;-2.00;81.60;;;;;;5002904;28;20212;-82
2021/01/31 12:05:23;;;;;;;18.47;11.40;;;-1.90;81.40;;;;;;4998743;28;20216;-84
2021/01/31 12:07:51;;;;;;;17.90;10.60;;;-1.80;81.40;;;;;;4989629;28;20204;-82
2021/01/31 12:10:26;;;;;;;20.60;11.20;;;-1.80;80.60;;;;;;5008081;28;20255;-81
2021/01/31 12:12:55;;;;;;;15.13;9.27;;;-1.80;80.60;;;;;;4993463;28;20297;-81
2021/01/31 12:15:23;;;;;;;15.63;10.37;;;-1.70;80.80;;;;;;4990423;28;20200;-82
2021/01/31 12:17:51;;;;;;;17.17;11.17;;;-1.80;80.90;;;;;;4991332;28;20200;-81
2021/01/31 12:20:19;;;;;;;20.70;10.83;;;-1.80;81.10;;;;;;4985322;28;20224;-82
2021/01/31 12:22:47;;;;;;;17.57;11.13;;;-1.80;81.50;;;;;;4989517;28;20205;-82
2021/01/31 12:25:17;;;;;;;17.17;10.63;;;-1.80;81.20;;;;;;4983008;28;20223;-82
2021/01/31 12:27:47;;;;;;;19.20;11.20;;;-1.70;80.90;;;;;;4981452;28;20204;-81
2021/01/31 12:30:17;;;;;;;17.63;10.70;;;-1.70;80.90;;;;;;4990145;28;20549;-78
2021/01/31 12:32:45;;;;;;;18.43;10.80;;;-1.70;80.60;;;;;;4986959;28;20204;-80
2021/01/31 12:35:13;;;;;;;15.20;9.97;;;-1.60;80.40;;;;;;4987175;28;20195;-81
2021/01/31 12:37:41;;;;;;;16.63;10.80;;;-1.70;80.10;;;;;;4988291;28;20596;-80
2021/01/31 12:40:10;;;;;;;17.33;10.73;;;-1.80;80.70;;;;;;4964944;28;20778;-82
2021/01/31 12:42:39;;;;;;;18.50;10.30;;;-1.70;80.80;;;;;;4998643;28;20208;-82
2021/01/31 12:45:08;;;;;;;18.17;10.50;;;-1.80;80.60;;;;;;4999150;28;20256;-82
2021/01/31 12:47:36;;;;;;;15.97;10.60;;;-1.80;80.60;;;;;;4985423;28;20231;-82
2021/01/31 12:50:09;;;;;;;15.87;10.20;;;-1.80;81.20;;;;;;4982023;28;20869;-81
2021/01/31 12:52:37;;;;;;;17.03;10.60;;;-1.80;80.80;;;;;;4984699;28;20251;-82
2021/01/31 12:55:07;;;;;;;16.07;10.40;;;-1.70;81.00;;;;;;4981385;28;20654;-82
2021/01/31 12:57:35;;;;;;;20.83;10.40;;;-1.70;80.80;;;;;;4987361;28;20204;-81
2021/01/31 13:00:05;;;;;;;17.23;10.80;;;-1.80;81.00;;;;;;4980997;28;20213;-81
2021/01/31 13:02:35;;;;;;;17.57;11.10;;;-1.80;80.90;;;;;;4987285;28;20196;-80